Upstream stations:
SHEF ID: TIFM7 Elk River near Tiff City, Mo
STATION TYPE:
Regulating: Stage = 15.00, Flow = 21304
PRECIP STAGE STAGE(2) RIV-FLOW BAT-LOAD
in ft ft cfs volt
Ccp-Rev Ccp-Rev Ccp-Rev Ccp-Rev Ccp-Rev
(US/Central)
04/02 00:00 0.00 6.27 6.27 2571 11.58
04/02 01:00 0.01 6.26 6.25 2558 11.57
04/02 02:00 0.01 6.23 6.24 2520 11.56
04/02 03:00 0.01 6.21 6.20 2495 11.56
04/02 04:00 0.02 6.18 6.17 2457 11.54
04/02 05:00 0.04 6.17 6.16 2444 11.49
04/02 06:00 0.01 6.14 6.13 2407 11.45
04/02 07:00 0.00 6.13 6.11 2395 11.42
04/02 08:00 0.00 6.10 6.09 2358 11.42
04/02 09:00 0.00 6.09 6.08 2345 12.40
04/02 10:00 0.00 6.06 6.06 2309 12.53
04/02 11:00 0.00 6.05 6.03 2297 12.63
04/02 12:00 0.00 6.04 6.01 2284 12.73
04/02 13:00 0.00 6.00 6.00 2236 12.76
04/02 14:00 0.00 5.99 5.98 2224 12.68
04/02 15:00 0.00 5.96 5.95 2188 12.62
04/02 16:00 0.00 5.94 5.95 2165 12.50
04/02 17:00 0.00 5.92 5.91 2141 12.35
04/02 18:00 0.00 5.91 5.90 2129 12.22
04/02 19:00 0.00 5.90 5.88 2118 12.15
04/02 20:00 0.00 5.88 5.87 2095 11.91
04/02 21:00 0.00 5.86 5.84 2071 11.63
04/02 22:00 0.00 5.85 5.84 2060 11.56
04/02 23:00 0.00 5.82 5.81 2026 11.54